EBBR/BRU METAR and TAF weather

Enter ICAO airport designator
Station Type Date Time Source
EBBR METAR 2020/04/08 20:20 UTC NOAA

EBBR 082020Z 33001KT CAVOK 17/05 Q1023 NOSIG


Station Type Date Time Source
EBBR Decoded METAR 2020/04/08 20:20 UTC NOAA

Bruxelles National, Belgium (EBBR) 50-54N 004-32E 58M
Apr 08, 2020 - 04:20 PM EDT / 2020.04.08 2020 UTC
Wind: from the NNW (330 degrees) at 1 MPH (1 KT):0
Visibility: greater than 7 mile(s):0
Temperature: 62 F (17 C)
Dew Point: 41 F (5 C)
Relative Humidity: 45%
Pressure (altimeter): 30.21 in. Hg (1023 hPa)
ob: EBBR 082020Z 33001KT CAVOK 17/05 Q1023 NOSIG
cycle: 20

Station Type Date Time Source
EBBR TAF 2020/04/08 18:27 UTC NOAA

TAF TAF EBBR 081707Z 0818/0924 VRB03KT CAVOK PROB40
TEMPO 0901/0907 3500 BR

Example: see airport list